createdAt,value
2018-09-11T00:00:03.119Z,4
2018-09-11T00:05:02.625Z,3
2018-09-11T00:10:03.205Z,4
2018-09-11T00:15:02.829Z,4
2018-09-11T00:20:03.467Z,6
2018-09-11T00:25:03.128Z,6
2018-09-11T00:30:02.742Z,7
2018-09-11T00:35:03.326Z,4
2018-09-11T00:40:02.982Z,5
2018-09-11T00:45:02.514Z,7
2018-09-11T00:50:03.172Z,4
2018-09-11T00:55:02.675Z,3
2018-09-11T01:00:03.271Z,7
2018-09-11T01:05:02.882Z,6
2018-09-11T01:10:03.698Z,4
2018-09-11T01:15:03.470Z,4
2018-09-11T01:20:03.145Z,3
2018-09-11T01:25:02.803Z,3
2018-09-11T01:30:03.385Z,3
2018-09-11T01:35:02.854Z,7
2018-09-11T01:40:03.511Z,3
2018-09-11T01:45:03.094Z,3
2018-09-11T01:50:02.743Z,4
2018-09-11T01:55:03.266Z,6
2018-09-11T02:00:02.835Z,4
2018-09-11T02:05:03.404Z,5
2018-09-11T02:10:03.008Z,4
2018-09-11T02:15:02.648Z,4
2018-09-11T02:20:03.263Z,4
2018-09-11T02:25:02.933Z,4
2018-09-11T02:30:03.543Z,6
2018-09-11T02:35:03.152Z,3
2018-09-11T02:40:02.793Z,3
2018-09-11T02:45:03.411Z,3
2018-09-11T02:50:02.960Z,6
2018-09-11T02:55:02.553Z,4
2018-09-11T03:00:03.144Z,4
2018-09-11T03:05:02.707Z,5
2018-09-11T03:10:03.345Z,5
2018-09-11T03:15:02.947Z,6
2018-09-11T03:20:03.461Z,7
2018-09-11T03:25:03.301Z,5
2018-09-11T03:30:02.945Z,8
2018-09-11T03:35:02.557Z,3
2018-09-11T03:40:03.216Z,8
2018-09-11T03:45:02.857Z,5
2018-09-11T03:50:03.508Z,5
2018-09-11T03:55:03.096Z,8
2018-09-11T04:00:02.943Z,6
2018-09-11T04:05:03.500Z,8
2018-09-11T04:10:03.138Z,6
2018-09-11T04:15:02.754Z,6
2018-09-11T04:20:03.309Z,6
2018-09-11T04:25:02.957Z,5
2018-09-11T04:30:02.548Z,5
2018-09-11T04:35:03.071Z,6
2018-09-11T04:40:02.768Z,8
2018-09-11T04:45:03.320Z,5
2018-09-11T04:50:02.850Z,7
2018-09-11T04:55:03.472Z,7
2018-09-11T05:00:03.058Z,7
2018-09-11T05:05:02.615Z,7
2018-09-11T05:10:03.331Z,6
2018-09-11T05:15:02.851Z,8
2018-09-11T05:20:03.546Z,7
2018-09-11T05:25:03.075Z,9
2018-09-11T05:30:02.745Z,11
2018-09-11T05:35:03.505Z,8
2018-09-11T05:40:03.130Z,8
2018-09-11T05:45:02.750Z,7
2018-09-11T05:50:03.392Z,8
2018-09-11T05:55:02.970Z,6
2018-09-11T06:00:03.487Z,7
2018-09-11T06:05:03.005Z,6
2018-09-11T06:10:02.586Z,7
2018-09-11T06:15:03.125Z,10
2018-09-11T06:20:02.652Z,9
2018-09-11T06:25:03.212Z,10
2018-09-11T06:30:02.785Z,6
2018-09-11T06:35:03.384Z,8
2018-09-11T06:40:02.943Z,6
2018-09-11T06:45:03.515Z,8
2018-09-11T06:50:03.002Z,11
2018-09-11T06:55:03.564Z,7
2018-09-11T07:00:03.080Z,9
2018-09-11T07:05:02.636Z,9
2018-09-11T07:10:03.314Z,7
2018-09-11T07:15:02.797Z,6
2018-09-11T07:20:04.957Z,9
2018-09-11T07:25:03.373Z,11
2018-09-11T07:30:04.994Z,7
2018-09-11T07:35:09.061Z,6
2018-09-11T07:40:04.740Z,9
2018-09-11T07:45:03.529Z,8
2018-09-11T07:50:04.156Z,5
2018-09-11T07:55:03.084Z,7
2018-09-11T08:00:02.917Z,12
2018-09-11T08:05:03.353Z,9
2018-09-11T08:10:02.858Z,7
2018-09-11T08:15:03.199Z,10
2018-09-11T08:20:02.681Z,8
2018-09-11T08:25:03.041Z,7
2018-09-11T08:30:03.386Z,7
2018-09-11T08:35:02.760Z,7
2018-09-11T08:40:03.333Z,11
2018-09-11T08:45:02.654Z,11
2018-09-11T08:50:03.179Z,8
2018-09-11T08:55:02.518Z,8
2018-09-11T09:00:02.947Z,8
2018-09-11T09:05:03.291Z,8
2018-09-11T09:10:02.975Z,6
2018-09-11T09:15:02.847Z,9
2018-09-11T09:20:03.376Z,11
2018-09-11T09:25:02.978Z,10
2018-09-11T09:30:02.654Z,9
2018-09-11T09:35:03.215Z,3
2018-09-11T09:40:02.820Z,7
2018-09-11T09:45:03.389Z,7
2018-09-11T09:50:03.028Z,6
2018-09-11T09:55:02.582Z,8
2018-09-11T10:00:03.156Z,8
2018-09-11T10:05:02.758Z,6
2018-09-11T10:10:03.346Z,8
2018-09-11T10:15:02.868Z,9
2018-09-11T10:20:03.458Z,9
2018-09-11T10:25:03.026Z,6
2018-09-11T10:30:02.516Z,7
2018-09-11T10:35:03.128Z,9
2018-09-11T10:40:02.777Z,5
2018-09-11T10:45:03.799Z,7
2018-09-11T10:50:02.543Z,12
2018-09-11T10:55:03.109Z,7
2018-09-11T11:00:02.867Z,8
2018-09-11T11:05:02.531Z,10
2018-09-11T11:10:03.136Z,9
2018-09-11T11:15:02.692Z,8
2018-09-11T11:20:03.242Z,6
2018-09-11T11:25:02.741Z,11
2018-09-11T11:30:03.349Z,10
2018-09-11T11:35:02.931Z,9
2018-09-11T11:40:03.454Z,7
2018-09-11T11:45:03.110Z,8
2018-09-11T11:50:02.770Z,5
2018-09-11T11:55:03.916Z,7
2018-09-11T12:00:02.765Z,8
2018-09-11T12:05:03.388Z,8
2018-09-11T12:10:03.171Z,10
2018-09-11T12:15:02.714Z,5
2018-09-11T12:20:03.289Z,6
2018-09-11T12:25:02.853Z,11
2018-09-11T12:30:03.546Z,6
2018-09-11T12:35:03.475Z,7
2018-09-11T12:40:03.293Z,13
2018-09-11T12:45:02.831Z,9
2018-09-11T12:50:03.449Z,9
2018-09-11T12:55:03.015Z,9
2018-09-11T13:00:02.710Z,8
2018-09-11T13:05:03.433Z,8
2018-09-11T13:10:03.031Z,7
2018-09-11T13:15:03.849Z,9
2018-09-11T13:20:02.753Z,10
2018-09-11T13:25:03.457Z,7
2018-09-11T13:30:03.014Z,7
2018-09-11T13:35:02.782Z,9
2018-09-11T13:40:03.417Z,9
2018-09-11T13:45:03.016Z,9
2018-09-11T13:50:02.671Z,7
2018-09-11T13:55:03.421Z,9
2018-09-11T14:00:02.935Z,10
2018-09-11T14:05:02.653Z,9
2018-09-11T14:10:03.500Z,6
2018-09-11T14:15:03.137Z,5
2018-09-11T14:20:02.784Z,6
2018-09-11T14:25:03.431Z,7
2018-09-11T14:30:02.963Z,7
2018-09-11T14:35:03.591Z,13
2018-09-11T14:40:03.456Z,6
2018-09-11T14:45:03.309Z,7
2018-09-11T14:50:02.868Z,11
2018-09-11T14:55:03.516Z,8
2018-09-11T15:00:03.130Z,6
2018-09-11T15:05:02.848Z,10
2018-09-11T15:10:03.586Z,8
2018-09-11T15:15:03.540Z,9
2018-09-11T15:20:03.541Z,14
2018-09-11T15:25:03.174Z,10
2018-09-11T15:30:03.433Z,12
2018-09-11T15:35:03.402Z,8
2018-09-11T15:40:02.978Z,10
2018-09-11T15:45:02.694Z,5
2018-09-11T15:50:03.311Z,5
2018-09-11T15:55:02.814Z,13
2018-09-11T16:00:03.367Z,6
2018-09-11T16:05:02.906Z,7
2018-09-11T16:10:03.570Z,7
2018-09-11T16:15:03.511Z,6
2018-09-11T16:20:03.328Z,9
2018-09-11T16:25:02.913Z,8
2018-09-11T16:30:03.731Z,6
2018-09-11T16:35:03.433Z,9
2018-09-11T16:40:03.252Z,6
2018-09-11T16:45:02.963Z,8
2018-09-11T16:50:02.578Z,7
2018-09-11T16:55:03.176Z,5
2018-09-11T17:00:03.061Z,8
2018-09-11T17:05:02.639Z,5
2018-09-11T17:10:03.362Z,6
2018-09-11T17:15:02.882Z,8
2018-09-11T17:20:03.728Z,4
2018-09-11T17:25:03.414Z,5
2018-09-11T17:30:03.017Z,7
2018-09-11T17:35:02.614Z,3
2018-09-11T17:40:03.239Z,4
2018-09-11T17:45:02.892Z,4
2018-09-11T17:50:03.448Z,3
2018-09-11T17:55:02.966Z,3
2018-09-11T18:00:03.528Z,3
2018-09-11T18:05:03.134Z,4
2018-09-11T18:10:02.680Z,4
2018-09-11T18:15:03.259Z,3
2018-09-11T18:20:02.969Z,2
2018-09-11T18:25:02.707Z,3
2018-09-11T18:30:03.485Z,3
2018-09-11T18:35:03.151Z,2
2018-09-11T18:40:02.889Z,1
2018-09-11T18:45:04.058Z,0
2018-09-11T18:50:03.042Z,1
2018-09-11T18:55:02.694Z,2
2018-09-11T19:00:03.240Z,1
2018-09-11T19:05:03.041Z,3
2018-09-11T19:10:02.830Z,1
2018-09-11T19:15:03.403Z,2
2018-09-11T19:20:03.497Z,3
2018-09-11T19:25:03.346Z,2
2018-09-11T19:30:02.857Z,3
2018-09-11T19:35:03.554Z,2
2018-09-11T19:40:03.435Z,4
2018-09-11T19:45:03.012Z,2
2018-09-11T19:50:02.928Z,2
2018-09-11T19:55:02.670Z,2
2018-09-11T20:00:03.347Z,3
2018-09-11T20:05:03.655Z,3
2018-09-11T20:10:02.544Z,4
2018-09-11T20:15:03.245Z,2
2018-09-11T20:20:02.848Z,3
2018-09-11T20:25:03.528Z,1
2018-09-11T20:30:03.331Z,5
2018-09-11T20:35:03.041Z,3
2018-09-11T20:40:02.590Z,3
2018-09-11T20:45:03.996Z,2
2018-09-11T20:50:02.848Z,4
2018-09-11T20:55:03.563Z,2
2018-09-11T21:00:03.192Z,2
2018-09-11T21:05:02.870Z,0
2018-09-11T21:10:03.573Z,2
2018-09-11T21:15:03.270Z,2
2018-09-11T21:20:03.023Z,3
2018-09-11T21:25:02.587Z,2
2018-09-11T21:30:03.499Z,3
2018-09-11T21:35:03.054Z,3
2018-09-11T21:40:02.712Z,2
2018-09-11T21:45:03.433Z,2
2018-09-11T21:50:03.037Z,1
2018-09-11T21:55:02.760Z,2
2018-09-11T22:00:03.727Z,3
2018-09-11T22:05:03.511Z,2
2018-09-11T22:10:03.121Z,3
2018-09-11T22:15:02.779Z,3
2018-09-11T22:20:03.497Z,2
2018-09-11T22:25:03.133Z,2
2018-09-11T22:30:03.552Z,3
2018-09-11T22:35:03.291Z,4
2018-09-11T22:40:03.035Z,3
2018-09-11T22:45:02.612Z,0
2018-09-11T22:50:03.374Z,2
2018-09-11T22:55:03.001Z,3
2018-09-11T23:00:02.611Z,2
2018-09-11T23:05:02.995Z,3
2018-09-11T23:10:02.767Z,3
2018-09-11T23:15:03.286Z,3
2018-09-11T23:20:02.980Z,2
2018-09-11T23:25:02.604Z,5
2018-09-11T23:30:03.148Z,3
2018-09-11T23:35:02.834Z,3
2018-09-11T23:40:03.554Z,3
2018-09-11T23:45:03.191Z,4
2018-09-11T23:50:02.871Z,4
2018-09-11T23:55:03.497Z,0
